PWSweather.com
Personal Weather Stations
Station Observations
CHEVALR
Cheval Rigon, Ferrieres Sur SichonFR

Cheval RigonFerrieres Sur SichonFR

Lat: 46.02966, Lon: 3.61771

Elevation: 1923

Station Type: Davis Vantage Pro2

Latest ConditionsUpdated 9:44:38 PM GMT+01:01 Wednesday, Apr 24, 2019
Currently Today's Max Today's Min Today's Average
Temperature 54.4°F12.4°C 60.8°F16.0°C 46.7°F8.2°C 54.4°F12.4°C
Dew Point 40.0°F4.4°C 49.0°F9.4°C 39.8°F4.3°C 45.2°F7.3°C
Winds 11.0 mph S17.7 kmh S 13.0 mph -20.9 kmh - - 4.0 mph 6.4 kmh
Wind Gusts 11.0 mph17.7 kmh 19.0 mph30.6 kmh - -
Humidity 58% 94% 54% 72%
Pressure 29.59 in1002.0 mb 29.60 in1002.4 mb 29.41 in995.9 mb -
Hour Temp Dew Point Humidity Winds Wind Gusts Pressure Precip Precip Rate Daily Precip Total
09:44 PM 54.4°F12.4°C 40.0°F4.4°C 58% 11.0 mph S17.7 kmh S 11.0 mph17.7 kmh 29.59 in1002.0 mb 0.00 in0.0 mm 0.00 in0.0 mm 0.11 in2.8 mm
09:29 PM 54.2°F12.3°C 39.8°F4.3°C 58% 1.0 mph ENE1.6 kmh ENE 13.0 mph20.9 kmh 29.58 in1001.7 mb 0.00 in0.0 mm 0.00 in0.0 mm 0.11 in2.8 mm
09:14 PM 53.6°F12.0°C 40.1°F4.5°C 60% 6.0 mph SE9.7 kmh SE 12.0 mph19.3 kmh 29.58 in1001.7 mb 0.00 in0.0 mm 0.00 in0.0 mm 0.11 in2.8 mm
08:59 PM 53.6°F12.0°C 40.1°F4.5°C 60% 6.0 mph SW9.7 kmh SW 13.0 mph20.9 kmh 29.58 in1001.7 mb 0.00 in0.0 mm 0.00 in0.0 mm 0.11 in2.8 mm
08:45 PM 53.5°F11.9°C 40.0°F4.4°C 60% 8.0 mph SSE12.9 kmh SSE 12.0 mph19.3 kmh 29.58 in1001.7 mb 0.00 in0.0 mm 0.00 in0.0 mm 0.11 in2.8 mm
08:29 PM 53.4°F11.9°C 40.3°F4.6°C 61% 13.0 mph SE20.9 kmh SE 13.0 mph20.9 kmh 29.58 in1001.7 mb 0.00 in0.0 mm 0.00 in0.0 mm 0.11 in2.8 mm
08:14 PM 53.6°F12.0°C 40.5°F4.7°C 61% 8.0 mph SE12.9 kmh SE 10.0 mph16.1 kmh 29.58 in1001.7 mb 0.00 in0.0 mm 0.00 in0.0 mm 0.11 in2.8 mm
08:00 PM 53.7°F12.1°C 40.2°F4.6°C 60% 2.0 mph S3.2 kmh S 11.0 mph17.7 kmh 29.58 in1001.7 mb 0.00 in0.0 mm 0.00 in0.0 mm 0.11 in2.8 mm
07:45 PM 53.9°F12.2°C 40.4°F4.7°C 60% 6.0 mph WSW9.7 kmh WSW 7.0 mph11.3 kmh 29.58 in1001.7 mb 0.00 in0.0 mm 0.00 in0.0 mm 0.11 in2.8 mm
07:30 PM 54.3°F12.4°C 40.7°F4.8°C 60% 1.0 mph ESE1.6 kmh ESE 13.0 mph20.9 kmh 29.58 in1001.7 mb 0.00 in0.0 mm 0.00 in0.0 mm 0.11 in2.8 mm
07:14 PM 54.8°F12.7°C 41.2°F5.1°C 60% 4.0 mph SSW6.4 kmh SSW 12.0 mph19.3 kmh 29.58 in1001.7 mb 0.00 in0.0 mm 0.00 in0.0 mm 0.11 in2.8 mm
06:59 PM 55.5°F13.1°C 41.9°F5.5°C 60% 11.0 mph S17.7 kmh S 11.0 mph17.7 kmh 29.57 in1001.4 mb 0.00 in0.0 mm 0.00 in0.0 mm 0.11 in2.8 mm
06:44 PM 56.0°F13.3°C 42.8°F6.0°C 61% 2.0 mph SE3.2 kmh SE 10.0 mph16.1 kmh 29.58 in1001.7 mb 0.00 in0.0 mm 0.00 in0.0 mm 0.11 in2.8 mm
06:29 PM 55.9°F13.3°C 43.5°F6.4°C 63% 3.0 mph S4.8 kmh S 8.0 mph12.9 kmh 29.58 in1001.7 mb 0.00 in0.0 mm 0.00 in0.0 mm 0.11 in2.8 mm
06:14 PM 56.2°F13.4°C 43.4°F6.3°C 62% 4.0 mph S6.4 kmh S 10.0 mph16.1 kmh 29.58 in1001.7 mb 0.00 in0.0 mm 0.00 in0.0 mm 0.11 in2.8 mm
05:59 PM 57.3°F14.1°C 43.1°F6.2°C 59% 1.0 mph SE1.6 kmh SE 5.0 mph8.0 kmh 29.58 in1001.7 mb 0.00 in0.0 mm 0.00 in0.0 mm 0.11 in2.8 mm
05:45 PM 57.8°F14.3°C 43.1°F6.2°C 58% 2.0 mph SE3.2 kmh SE 9.0 mph14.5 kmh 29.57 in1001.4 mb 0.00 in0.0 mm 0.00 in0.0 mm 0.11 in2.8 mm
05:29 PM 58.0°F14.4°C 43.3°F6.3°C 58% 2.0 mph SW3.2 kmh SW 9.0 mph14.5 kmh 29.57 in1001.4 mb 0.00 in0.0 mm 0.00 in0.0 mm 0.11 in2.8 mm
05:14 PM 58.8°F14.9°C 42.7°F5.9°C 55% Calm Calm 9.0 mph14.5 kmh 29.56 in1001.0 mb 0.00 in0.0 mm 0.00 in0.0 mm 0.11 in2.8 mm
04:59 PM 60.8°F16.0°C 44.6°F7.0°C 55% 1.0 mph ESE1.6 kmh ESE 11.0 mph17.7 kmh 29.56 in1001.0 mb 0.00 in0.0 mm 0.00 in0.0 mm 0.11 in2.8 mm
04:44 PM 60.0°F15.6°C 43.8°F6.6°C 55% 4.0 mph SW6.4 kmh SW 10.0 mph16.1 kmh 29.56 in1001.0 mb 0.00 in0.0 mm 0.00 in0.0 mm 0.11 in2.8 mm
04:30 PM 59.6°F15.3°C 43.9°F6.6°C 56% 1.0 mph SSW1.6 kmh SSW 8.0 mph12.9 kmh 29.57 in1001.4 mb 0.00 in0.0 mm 0.00 in0.0 mm 0.11 in2.8 mm
04:14 PM 58.3°F14.6°C 43.2°F6.2°C 57% 4.0 mph ENE6.4 kmh ENE 14.0 mph22.5 kmh 29.57 in1001.4 mb 0.00 in0.0 mm 0.00 in0.0 mm 0.11 in2.8 mm
03:59 PM 57.9°F14.4°C 42.8°F6.0°C 57% 4.0 mph SSE6.4 kmh SSE 12.0 mph19.3 kmh 29.56 in1001.0 mb 0.00 in0.0 mm 0.00 in0.0 mm 0.11 in2.8 mm
03:44 PM 57.0°F13.9°C 43.3°F6.3°C 60% 7.0 mph S11.3 kmh S 9.0 mph14.5 kmh 29.56 in1001.0 mb 0.00 in0.0 mm 0.00 in0.0 mm 0.11 in2.8 mm
03:30 PM 57.6°F14.2°C 42.0°F5.6°C 56% 11.0 mph E17.7 kmh E 16.0 mph25.7 kmh 29.57 in1001.4 mb 0.00 in0.0 mm 0.00 in0.0 mm 0.11 in2.8 mm
03:15 PM 58.2°F14.6°C 41.7°F5.4°C 54% 10.0 mph SE16.1 kmh SE 19.0 mph30.6 kmh 29.58 in1001.7 mb 0.00 in0.0 mm 0.00 in0.0 mm 0.11 in2.8 mm
03:00 PM 58.1°F14.5°C 46.0°F7.8°C 64% Calm Calm 7.0 mph11.3 kmh 29.59 in1002.0 mb 0.00 in0.0 mm 0.00 in0.0 mm 0.11 in2.8 mm
02:44 PM 55.7°F13.2°C 42.5°F5.8°C 61% 1.0 mph WSW1.6 kmh WSW 11.0 mph17.7 kmh 29.58 in1001.7 mb 0.00 in0.0 mm 0.00 in0.0 mm 0.11 in2.8 mm
02:29 PM 57.7°F14.3°C 44.8°F7.1°C 62% 4.0 mph SW6.4 kmh SW 9.0 mph14.5 kmh 29.58 in1001.7 mb 0.00 in0.0 mm 0.00 in0.0 mm 0.11 in2.8 mm
02:15 PM 57.2°F14.0°C 44.7°F7.1°C 63% 2.0 mph S3.2 kmh S 9.0 mph14.5 kmh 29.58 in1001.7 mb 0.00 in0.0 mm 0.00 in0.0 mm 0.11 in2.8 mm
01:59 PM 56.7°F13.7°C 45.1°F7.3°C 65% 5.0 mph SW8.0 kmh SW 9.0 mph14.5 kmh 29.59 in1002.0 mb 0.00 in0.0 mm 0.00 in0.0 mm 0.11 in2.8 mm
01:45 PM 54.7°F12.6°C 45.1°F7.3°C 70% 3.0 mph S4.8 kmh S 7.0 mph11.3 kmh 29.59 in1002.0 mb 0.00 in0.0 mm 0.00 in0.0 mm 0.11 in2.8 mm
01:29 PM 53.7°F12.1°C 45.6°F7.6°C 74% 2.0 mph SE3.2 kmh SE 8.0 mph12.9 kmh 29.58 in1001.7 mb 0.00 in0.0 mm 0.00 in0.0 mm 0.11 in2.8 mm
01:14 PM 52.2°F11.2°C 45.2°F7.3°C 77% 6.0 mph SSW9.7 kmh SSW 8.0 mph12.9 kmh 29.60 in1002.4 mb 0.00 in0.0 mm 0.00 in0.0 mm 0.11 in2.8 mm
12:59 PM 49.8°F9.9°C 43.9°F6.6°C 80% 5.0 mph SSE8.0 kmh SSE 8.0 mph12.9 kmh 29.60 in1002.4 mb 0.00 in0.0 mm 0.00 in0.0 mm 0.11 in2.8 mm
12:45 PM 50.2°F10.1°C 45.6°F7.6°C 84% 5.0 mph SW8.0 kmh SW 10.0 mph16.1 kmh 29.60 in1002.4 mb 0.00 in0.0 mm 0.00 in0.0 mm 0.11 in2.8 mm
12:30 PM 49.2°F9.6°C 44.9°F7.2°C 85% 2.0 mph WSW3.2 kmh WSW 7.0 mph11.3 kmh 29.59 in1002.0 mb 0.00 in0.0 mm 0.00 in0.0 mm 0.11 in2.8 mm
12:14 PM 50.1°F10.1°C 45.5°F7.5°C 84% 4.0 mph SSE6.4 kmh SSE 15.0 mph24.1 kmh 29.59 in1002.0 mb 0.01 in0.3 mm 0.00 in0.0 mm 0.11 in2.8 mm
12:00 PM 49.3°F9.6°C 45.9°F7.7°C 88% 1.0 mph WSW1.6 kmh WSW 9.0 mph14.5 kmh 29.58 in1001.7 mb 0.03 in0.8 mm 0.00 in0.0 mm 0.11 in2.8 mm
11:44 AM 48.3°F9.1°C 45.5°F7.5°C 90% 10.0 mph WSW16.1 kmh WSW 10.0 mph16.1 kmh 29.58 in1001.7 mb 0.03 in0.8 mm 0.00 in0.0 mm 0.11 in2.8 mm
11:29 AM 48.5°F9.2°C 46.3°F7.9°C 92% 5.0 mph SW8.0 kmh SW 8.0 mph12.9 kmh 29.58 in1001.7 mb 0.03 in0.8 mm 0.00 in0.0 mm 0.11 in2.8 mm
11:15 AM 47.8°F8.8°C 45.3°F7.4°C 91% 2.0 mph S3.2 kmh S 8.0 mph12.9 kmh 29.59 in1002.0 mb 0.03 in0.8 mm 0.01 in0.3 mm 0.11 in2.8 mm
10:59 AM 49.2°F9.6°C 46.7°F8.2°C 91% 4.0 mph SW6.4 kmh SW 7.0 mph11.3 kmh 29.59 in1002.0 mb 0.02 in0.5 mm 0.04 in1.0 mm 0.10 in2.5 mm
10:44 AM 49.1°F9.5°C 46.6°F8.1°C 91% 5.0 mph SSW8.0 kmh SSW 7.0 mph11.3 kmh 29.57 in1001.4 mb 0.01 in0.3 mm 0.00 in0.0 mm 0.09 in2.3 mm
10:30 AM 47.8°F8.8°C 45.3°F7.4°C 91% 10.0 mph SW16.1 kmh SW 10.0 mph16.1 kmh 29.57 in1001.4 mb 0.04 in1.0 mm 0.00 in0.0 mm 0.09 in2.3 mm
10:14 AM 49.0°F9.4°C 47.1°F8.4°C 93% 1.0 mph SSW1.6 kmh SSW 6.0 mph9.7 kmh 29.56 in1001.0 mb 0.05 in1.3 mm 0.00 in0.0 mm 0.09 in2.3 mm
10:00 AM 48.7°F9.3°C 47.1°F8.4°C 94% 2.0 mph SSW3.2 kmh SSW 5.0 mph8.0 kmh 29.56 in1001.0 mb 0.06 in1.5 mm 0.00 in0.0 mm 0.09 in2.3 mm
09:44 AM 46.7°F8.2°C 44.2°F6.8°C 91% 3.0 mph SW4.8 kmh SW 5.0 mph8.0 kmh 29.56 in1001.0 mb 0.08 in2.0 mm 0.09 in2.3 mm 0.09 in2.3 mm
09:30 AM 47.2°F8.4°C 44.1°F6.7°C 89% 3.0 mph SW4.8 kmh SW 4.0 mph6.4 kmh 29.54 in1000.3 mb 0.06 in1.5 mm 0.12 in3.0 mm 0.07 in1.8 mm
09:15 AM 49.1°F9.5°C 44.8°F7.1°C 85% Calm Calm 8.0 mph12.9 kmh 29.54 in1000.3 mb 0.03 in0.8 mm 0.01 in0.3 mm 0.04 in1.0 mm
08:59 AM 52.3°F11.3°C 47.0°F8.3°C 82% 10.0 mph S16.1 kmh S 10.0 mph16.1 kmh 29.52 in999.7 mb 0.02 in0.5 mm 0.04 in1.0 mm 0.03 in0.8 mm
08:44 AM 55.9°F13.3°C 48.5°F9.2°C 76% 7.0 mph WSW11.3 kmh WSW 7.0 mph11.3 kmh 29.51 in999.3 mb 0.01 in0.3 mm 0.04 in1.0 mm 0.02 in0.5 mm
08:30 AM 56.5°F13.6°C 47.2°F8.4°C 71% 3.0 mph S4.8 kmh S 7.0 mph11.3 kmh 29.48 in998.3 mb 0.00 in0.0 mm 0.00 in0.0 mm 0.01 in0.3 mm
08:15 AM 56.2°F13.4°C 47.7°F8.7°C 73% Calm Calm 5.0 mph8.0 kmh 29.48 in998.3 mb 0.01 in0.3 mm 0.00 in0.0 mm 0.01 in0.3 mm
08:00 AM 55.7°F13.2°C 47.9°F8.8°C 75% 3.0 mph SW4.8 kmh SW 10.0 mph16.1 kmh 29.47 in998.0 mb 0.01 in0.3 mm 0.00 in0.0 mm 0.01 in0.3 mm
07:45 AM 55.1°F12.8°C 48.4°F9.1°C 78% 8.0 mph SSW12.9 kmh SSW 10.0 mph16.1 kmh 29.46 in997.6 mb 0.01 in0.3 mm 0.00 in0.0 mm 0.01 in0.3 mm
07:30 AM 54.8°F12.7°C 48.4°F9.1°C 79% 8.0 mph SE12.9 kmh SE 8.0 mph12.9 kmh 29.46 in997.6 mb 0.01 in0.3 mm 0.04 in1.0 mm 0.01 in0.3 mm
07:14 AM 56.1°F13.4°C 48.7°F9.3°C 76% 4.0 mph SE6.4 kmh SE 11.0 mph17.7 kmh 29.46 in997.6 mb 0.00 in0.0 mm 0.00 in0.0 mm 0.00 in0.0 mm
07:00 AM 56.7°F13.7°C 47.4°F8.6°C 71% 7.0 mph SW11.3 kmh SW 8.0 mph12.9 kmh 29.45 in997.3 mb 0.00 in0.0 mm 0.00 in0.0 mm 0.00 in0.0 mm
06:45 AM 56.4°F13.6°C 47.1°F8.4°C 71% 5.0 mph S8.0 kmh S 7.0 mph11.3 kmh 29.44 in997.0 mb 0.00 in0.0 mm 0.00 in0.0 mm 0.00 in0.0 mm
06:30 AM 56.3°F13.5°C 46.7°F8.2°C 70% 1.0 mph WNW1.6 kmh WNW 9.0 mph14.5 kmh 29.44 in997.0 mb 0.00 in0.0 mm 0.00 in0.0 mm 0.00 in0.0 mm
06:15 AM 56.6°F13.7°C 46.6°F8.1°C 69% 5.0 mph SSW8.0 kmh SSW 8.0 mph12.9 kmh 29.44 in997.0 mb 0.00 in0.0 mm 0.00 in0.0 mm 0.00 in0.0 mm
06:00 AM 56.6°F13.7°C 46.6°F8.1°C 69% 2.0 mph SE3.2 kmh SE 7.0 mph11.3 kmh 29.43 in996.6 mb 0.00 in0.0 mm 0.00 in0.0 mm 0.00 in0.0 mm
05:44 AM 56.2°F13.4°C 46.9°F8.3°C 71% 12.0 mph S19.3 kmh S 12.0 mph19.3 kmh 29.43 in996.6 mb 0.00 in0.0 mm 0.00 in0.0 mm 0.00 in0.0 mm
05:29 AM 55.7°F13.2°C 46.8°F8.2°C 72% 3.0 mph SSE4.8 kmh SSE 9.0 mph14.5 kmh 29.44 in997.0 mb 0.00 in0.0 mm 0.00 in0.0 mm 0.00 in0.0 mm
05:15 AM 55.3°F12.9°C 46.8°F8.2°C 73% 1.0 mph SW1.6 kmh SW 8.0 mph12.9 kmh 29.43 in996.6 mb 0.00 in0.0 mm 0.00 in0.0 mm 0.00 in0.0 mm
05:00 AM 55.4°F13.0°C 46.5°F8.1°C 72% 4.0 mph S6.4 kmh S 6.0 mph9.7 kmh 29.42 in996.3 mb 0.00 in0.0 mm 0.00 in0.0 mm 0.00 in0.0 mm
04:44 AM 55.2°F12.9°C 46.3°F7.9°C 72% 5.0 mph SE8.0 kmh SE 10.0 mph16.1 kmh 29.42 in996.3 mb 0.00 in0.0 mm 0.00 in0.0 mm 0.00 in0.0 mm
04:29 AM 54.8°F12.7°C 46.3°F7.9°C 73% Calm Calm 10.0 mph16.1 kmh 29.42 in996.3 mb 0.00 in0.0 mm 0.00 in0.0 mm 0.00 in0.0 mm
04:14 AM 55.2°F12.9°C 46.3°F7.9°C 72% Calm Calm 6.0 mph9.7 kmh 29.43 in996.6 mb 0.00 in0.0 mm 0.00 in0.0 mm 0.00 in0.0 mm
04:00 AM 55.6°F13.1°C 46.7°F8.2°C 72% 3.0 mph SSE4.8 kmh SSE 9.0 mph14.5 kmh 29.43 in996.6 mb 0.00 in0.0 mm 0.00 in0.0 mm 0.00 in0.0 mm
03:44 AM 55.6°F13.1°C 46.7°F8.2°C 72% 1.0 mph ESE1.6 kmh ESE 8.0 mph12.9 kmh 29.43 in996.6 mb 0.00 in0.0 mm 0.00 in0.0 mm 0.00 in0.0 mm
03:30 AM 56.1°F13.4°C 46.8°F8.2°C 71% 2.0 mph SE3.2 kmh SE 10.0 mph16.1 kmh 29.43 in996.6 mb 0.00 in0.0 mm 0.00 in0.0 mm 0.00 in0.0 mm
03:15 AM 56.0°F13.3°C 47.1°F8.4°C 72% 5.0 mph ESE8.0 kmh ESE 9.0 mph14.5 kmh 29.43 in996.6 mb 0.00 in0.0 mm 0.00 in0.0 mm 0.00 in0.0 mm
02:59 AM 56.0°F13.3°C 47.1°F8.4°C 72% 8.0 mph ESE12.9 kmh ESE 8.0 mph12.9 kmh 29.42 in996.3 mb 0.00 in0.0 mm 0.00 in0.0 mm 0.00 in0.0 mm
02:45 AM 56.0°F13.3°C 47.5°F8.6°C 73% 1.0 mph SSW1.6 kmh SSW 9.0 mph14.5 kmh 29.41 in995.9 mb 0.00 in0.0 mm 0.00 in0.0 mm 0.00 in0.0 mm
02:30 AM 56.0°F13.3°C 47.8°F8.8°C 74% 2.0 mph SSW3.2 kmh SSW 14.0 mph22.5 kmh 29.41 in995.9 mb 0.00 in0.0 mm 0.00 in0.0 mm 0.00 in0.0 mm
02:15 AM 55.5°F13.1°C 48.4°F9.1°C 77% 1.0 mph SE1.6 kmh SE 9.0 mph14.5 kmh 29.42 in996.3 mb 0.00 in0.0 mm 0.00 in0.0 mm 0.00 in0.0 mm
01:59 AM 54.4°F12.4°C 48.7°F9.3°C 81% 1.0 mph SSE1.6 kmh SSE 6.0 mph9.7 kmh 29.42 in996.3 mb 0.00 in0.0 mm 0.00 in0.0 mm 0.00 in0.0 mm
01:45 AM 55.0°F12.8°C 49.0°F9.4°C 80% 3.0 mph ESE4.8 kmh ESE 4.0 mph6.4 kmh 29.43 in996.6 mb 0.00 in0.0 mm 0.00 in0.0 mm 0.00 in0.0 mm
01:30 AM 54.6°F12.6°C 48.6°F9.2°C 80% 1.0 mph SE1.6 kmh SE 10.0 mph16.1 kmh 29.42 in996.3 mb 0.00 in0.0 mm 0.00 in0.0 mm 0.00 in0.0 mm
01:14 AM 55.0°F12.8°C 49.0°F9.4°C 80% 6.0 mph S9.7 kmh S 7.0 mph11.3 kmh 29.42 in996.3 mb 0.00 in0.0 mm 0.00 in0.0 mm 0.00 in0.0 mm
01:00 AM 54.5°F12.5°C 48.8°F9.3°C 81% 1.0 mph SSE1.6 kmh SSE 11.0 mph17.7 kmh 29.42 in996.3 mb 0.00 in0.0 mm 0.00 in0.0 mm 0.00 in0.0 mm
12:44 AM 52.3°F11.3°C 48.2°F9.0°C 86% 6.0 mph SE9.7 kmh SE 6.0 mph9.7 kmh 29.42 in996.3 mb 0.00 in0.0 mm 0.00 in0.0 mm 0.00 in0.0 mm
12:29 AM 51.8°F11.0°C 47.8°F8.8°C 86% Calm Calm -- 29.43 in996.6 mb 0.00 in0.0 mm 0.00 in0.0 mm 0.00 in0.0 mm
12:15 AM 52.5°F11.4°C 48.1°F8.9°C 85% Calm Calm 2.0 mph3.2 kmh 29.43 in996.6 mb 0.00 in0.0 mm 0.00 in0.0 mm 0.00 in0.0 mm